sensor_id;sensor_type;location;lat;lon;timestamp;P1;durP1;ratioP1;P2;durP2;ratioP2
66402;SDS011;53212;52.112;5.144;2023-07-30T00:01:30;10.50;;;2.50;;
66402;SDS011;53212;52.112;5.144;2023-07-30T00:03:56;4.50;;;2.10;;
66402;SDS011;53212;52.112;5.144;2023-07-30T00:06:21;7.50;;;2.20;;
66402;SDS011;53212;52.112;5.144;2023-07-30T00:08:47;5.40;;;1.90;;
66402;SDS011;53212;52.112;5.144;2023-07-30T00:11:12;11.80;;;2.60;;
66402;SDS011;53212;52.112;5.144;2023-07-30T00:13:37;7.20;;;2.20;;
66402;SDS011;53212;52.112;5.144;2023-07-30T00:16:03;9.10;;;2.40;;
66402;SDS011;53212;52.112;5.144;2023-07-30T00:18:28;7.20;;;2.20;;
66402;SDS011;53212;52.112;5.144;2023-07-30T00:20:54;8.30;;;2.20;;
66402;SDS011;53212;52.112;5.144;2023-07-30T00:23:19;6.00;;;1.80;;
66402;SDS011;53212;52.112;5.144;2023-07-30T00:25:44;8.00;;;2.20;;
66402;SDS011;53212;52.112;5.144;2023-07-30T00:28:10;8.40;;;2.40;;
66402;SDS011;53212;52.112;5.144;2023-07-30T00:30:35;7.80;;;2.50;;
66402;SDS011;53212;52.112;5.144;2023-07-30T00:33:01;6.90;;;2.60;;
66402;SDS011;53212;52.112;5.144;2023-07-30T00:35:26;8.70;;;2.60;;
66402;SDS011;53212;52.112;5.144;2023-07-30T00:37:52;7.40;;;2.20;;
66402;SDS011;53212;52.112;5.144;2023-07-30T00:40:17;4.90;;;2.10;;
66402;SDS011;53212;52.112;5.144;2023-07-30T00:42:43;4.80;;;2.20;;
66402;SDS011;53212;52.112;5.144;2023-07-30T00:45:09;8.40;;;2.70;;
66402;SDS011;53212;52.112;5.144;2023-07-30T00:47:36;6.40;;;2.50;;
66402;SDS011;53212;52.112;5.144;2023-07-30T00:50:03;4.00;;;1.70;;
66402;SDS011;53212;52.112;5.144;2023-07-30T00:52:30;5.30;;;2.20;;
66402;SDS011;53212;52.112;5.144;2023-07-30T00:54:57;10.20;;;2.70;;
66402;SDS011;53212;52.112;5.144;2023-07-30T00:57:24;9.50;;;2.30;;
66402;SDS011;53212;52.112;5.144;2023-07-30T00:59:50;7.60;;;2.40;;
66402;SDS011;53212;52.112;5.144;2023-07-30T01:02:16;11.70;;;2.90;;
66402;SDS011;53212;52.112;5.144;2023-07-30T01:04:42;11.80;;;2.90;;
66402;SDS011;53212;52.112;5.144;2023-07-30T01:48:05;9.40;;;2.70;;
66402;SDS011;53212;52.112;5.144;2023-07-30T02:47:13;11.10;;;3.20;;
66402;SDS011;53212;52.112;5.144;2023-07-30T02:49:39;14.10;;;3.70;;
66402;SDS011;53212;52.112;5.144;2023-07-30T02:52:04;13.90;;;3.90;;
66402;SDS011;53212;52.112;5.144;2023-07-30T02:54:30;11.90;;;3.40;;
66402;SDS011;53212;52.112;5.144;2023-07-30T02:56:55;11.00;;;3.20;;
66402;SDS011;53212;52.112;5.144;2023-07-30T02:59:20;15.10;;;4.20;;
66402;SDS011;53212;52.112;5.144;2023-07-30T03:01:46;13.80;;;3.70;;
66402;SDS011;53212;52.112;5.144;2023-07-30T03:04:11;10.80;;;4.00;;
66402;SDS011;53212;52.112;5.144;2023-07-30T03:06:37;13.80;;;3.90;;
66402;SDS011;53212;52.112;5.144;2023-07-30T03:09:02;12.20;;;3.00;;
66402;SDS011;53212;52.112;5.144;2023-07-30T03:11:28;14.20;;;3.70;;
66402;SDS011;53212;52.112;5.144;2023-07-30T03:13:53;13.50;;;3.80;;
66402;SDS011;53212;52.112;5.144;2023-07-30T03:16:18;11.20;;;3.80;;
66402;SDS011;53212;52.112;5.144;2023-07-30T03:18:44;15.90;;;4.10;;
66402;SDS011;53212;52.112;5.144;2023-07-30T03:21:09;15.70;;;4.20;;
66402;SDS011;53212;52.112;5.144;2023-07-30T03:23:34;16.10;;;4.00;;
66402;SDS011;53212;52.112;5.144;2023-07-30T03:26:00;16.80;;;4.50;;
66402;SDS011;53212;52.112;5.144;2023-07-30T03:28:26;19.00;;;4.00;;
66402;SDS011;53212;52.112;5.144;2023-07-30T03:30:51;16.10;;;4.10;;
66402;SDS011;53212;52.112;5.144;2023-07-30T03:33:16;16.30;;;4.40;;
66402;SDS011;53212;52.112;5.144;2023-07-30T03:35:42;13.50;;;3.80;;
66402;SDS011;53212;52.112;5.144;2023-07-30T03:38:07;13.40;;;4.00;;
66402;SDS011;53212;52.112;5.144;2023-07-30T03:40:33;13.20;;;4.20;;
66402;SDS011;53212;52.112;5.144;2023-07-30T03:42:58;18.70;;;4.40;;
66402;SDS011;53212;52.112;5.144;2023-07-30T03:45:24;14.60;;;4.60;;
66402;SDS011;53212;52.112;5.144;2023-07-30T03:47:49;13.10;;;4.20;;
66402;SDS011;53212;52.112;5.144;2023-07-30T03:50:14;17.10;;;4.40;;
66402;SDS011;53212;52.112;5.144;2023-07-30T03:52:40;15.50;;;4.90;;
66402;SDS011;53212;52.112;5.144;2023-07-30T04:47:32;19.50;;;5.20;;
66402;SDS011;53212;52.112;5.144;2023-07-30T04:49:57;19.70;;;4.70;;
66402;SDS011;53212;52.112;5.144;2023-07-30T04:52:23;15.60;;;4.80;;
66402;SDS011;53212;52.112;5.144;2023-07-30T04:54:48;19.50;;;4.50;;
66402;SDS011;53212;52.112;5.144;2023-07-30T04:57:14;23.00;;;5.30;;
66402;SDS011;53212;52.112;5.144;2023-07-30T04:59:39;21.60;;;5.20;;
66402;SDS011;53212;52.112;5.144;2023-07-30T05:02:05;18.00;;;5.20;;
66402;SDS011;53212;52.112;5.144;2023-07-30T05:04:30;17.70;;;4.60;;
66402;SDS011;53212;52.112;5.144;2023-07-30T05:06:56;15.80;;;4.40;;
66402;SDS011;53212;52.112;5.144;2023-07-30T05:09:21;13.50;;;4.50;;
66402;SDS011;53212;52.112;5.144;2023-07-30T05:11:46;14.70;;;4.60;;
66402;SDS011;53212;52.112;5.144;2023-07-30T05:14:12;19.60;;;4.50;;
66402;SDS011;53212;52.112;5.144;2023-07-30T05:16:37;17.10;;;4.90;;
66402;SDS011;53212;52.112;5.144;2023-07-30T05:19:03;19.90;;;5.10;;
66402;SDS011;53212;52.112;5.144;2023-07-30T05:21:28;17.00;;;4.60;;
66402;SDS011;53212;52.112;5.144;2023-07-30T05:23:53;20.20;;;5.30;;
66402;SDS011;53212;52.112;5.144;2023-07-30T05:26:19;21.50;;;5.20;;
66402;SDS011;53212;52.112;5.144;2023-07-30T05:28:44;18.20;;;5.10;;
66402;SDS011;53212;52.112;5.144;2023-07-30T05:31:10;18.30;;;5.00;;
66402;SDS011;53212;52.112;5.144;2023-07-30T05:33:35;21.40;;;5.30;;
66402;SDS011;53212;52.112;5.144;2023-07-30T05:36:00;19.20;;;4.80;;
66402;SDS011;53212;52.112;5.144;2023-07-30T05:38:26;18.50;;;4.80;;
66402;SDS011;53212;52.112;5.144;2023-07-30T05:40:51;17.70;;;5.80;;
66402;SDS011;53212;52.112;5.144;2023-07-30T05:43:17;18.70;;;4.90;;
66402;SDS011;53212;52.112;5.144;2023-07-30T05:45:43;17.20;;;4.50;;
66402;SDS011;53212;52.112;5.144;2023-07-30T05:48:08;21.40;;;5.00;;
66402;SDS011;53212;52.112;5.144;2023-07-30T05:50:34;18.90;;;5.60;;
66402;SDS011;53212;52.112;5.144;2023-07-30T05:52:59;18.90;;;5.70;;
66402;SDS011;53212;52.112;5.144;2023-07-30T05:55:25;13.40;;;4.00;;
66402;SDS011;53212;52.112;5.144;2023-07-30T05:57:50;17.70;;;4.70;;
66402;SDS011;53212;52.112;5.144;2023-07-30T06:00:16;18.60;;;5.30;;
66402;SDS011;53212;52.112;5.144;2023-07-30T06:02:41;17.10;;;5.00;;
66402;SDS011;53212;52.112;5.144;2023-07-30T06:05:07;15.70;;;4.40;;
66402;SDS011;53212;52.112;5.144;2023-07-30T06:07:33;20.00;;;4.60;;
66402;SDS011;53212;52.112;5.144;2023-07-30T06:09:58;15.70;;;5.10;;
66402;SDS011;53212;52.112;5.144;2023-07-30T06:12:24;16.40;;;4.60;;
66402;SDS011;53212;52.112;5.144;2023-07-30T06:14:49;14.00;;;4.20;;
66402;SDS011;53212;52.112;5.144;2023-07-30T06:17:15;13.80;;;4.60;;
66402;SDS011;53212;52.112;5.144;2023-07-30T06:19:40;19.50;;;4.20;;
66402;SDS011;53212;52.112;5.144;2023-07-30T06:22:05;18.60;;;4.40;;
66402;SDS011;53212;52.112;5.144;2023-07-30T06:24:31;20.60;;;4.70;;
66402;SDS011;53212;52.112;5.144;2023-07-30T06:26:56;16.60;;;4.50;;
66402;SDS011;53212;52.112;5.144;2023-07-30T06:29:22;15.00;;;4.20;;
66402;SDS011;53212;52.112;5.144;2023-07-30T06:31:47;15.50;;;4.40;;
66402;SDS011;53212;52.112;5.144;2023-07-30T06:34:13;16.00;;;4.80;;
66402;SDS011;53212;52.112;5.144;2023-07-30T06:36:38;14.90;;;3.90;;
66402;SDS011;53212;52.112;5.144;2023-07-30T06:39:03;19.00;;;4.50;;
66402;SDS011;53212;52.112;5.144;2023-07-30T06:41:29;13.30;;;4.00;;
66402;SDS011;53212;52.112;5.144;2023-07-30T06:43:54;12.70;;;4.30;;
66402;SDS011;53212;52.112;5.144;2023-07-30T06:46:20;19.80;;;4.90;;
66402;SDS011;53212;52.112;5.144;2023-07-30T06:48:45;18.80;;;3.90;;
66402;SDS011;53212;52.112;5.144;2023-07-30T06:51:11;14.20;;;3.90;;
66402;SDS011;53212;52.112;5.144;2023-07-30T06:53:38;18.20;;;4.20;;
66402;SDS011;53212;52.112;5.144;2023-07-30T06:56:03;15.80;;;4.10;;
66402;SDS011;53212;52.112;5.144;2023-07-30T06:58:29;12.60;;;4.00;;
66402;SDS011;53212;52.112;5.144;2023-07-30T07:00:54;16.50;;;4.40;;
66402;SDS011;53212;52.112;5.144;2023-07-30T07:48:05;13.10;;;3.40;;
66402;SDS011;53212;52.112;5.144;2023-07-30T07:50:31;12.40;;;3.60;;
66402;SDS011;53212;52.112;5.144;2023-07-30T07:52:56;10.90;;;2.90;;
66402;SDS011;53212;52.112;5.144;2023-07-30T07:55:21;10.80;;;3.80;;
66402;SDS011;53212;52.112;5.144;2023-07-30T07:57:48;10.90;;;3.50;;
66402;SDS011;53212;52.112;5.144;2023-07-30T08:00:13;14.90;;;4.40;;
66402;SDS011;53212;52.112;5.144;2023-07-30T08:02:38;10.00;;;3.30;;
66402;SDS011;53212;52.112;5.144;2023-07-30T08:05:04;12.30;;;3.60;;
66402;SDS011;53212;52.112;5.144;2023-07-30T08:07:29;13.30;;;3.40;;
66402;SDS011;53212;52.112;5.144;2023-07-30T08:09:55;10.40;;;3.00;;
66402;SDS011;53212;52.112;5.144;2023-07-30T08:12:20;13.50;;;3.20;;
66402;SDS011;53212;52.112;5.144;2023-07-30T08:14:46;9.30;;;3.10;;
66402;SDS011;53212;52.112;5.144;2023-07-30T08:17:11;11.90;;;3.20;;
66402;SDS011;53212;52.112;5.144;2023-07-30T08:19:37;11.30;;;3.30;;
66402;SDS011;53212;52.112;5.144;2023-07-30T08:22:02;11.60;;;3.00;;
66402;SDS011;53212;52.112;5.144;2023-07-30T08:24:28;13.70;;;3.60;;
66402;SDS011;53212;52.112;5.144;2023-07-30T08:26:53;13.50;;;3.20;;
66402;SDS011;53212;52.112;5.144;2023-07-30T08:29:19;12.10;;;3.10;;
66402;SDS011;53212;52.112;5.144;2023-07-30T08:31:44;9.20;;;2.90;;
66402;SDS011;53212;52.112;5.144;2023-07-30T08:34:09;11.20;;;2.50;;
66402;SDS011;53212;52.112;5.144;2023-07-30T08:36:35;6.70;;;2.40;;
66402;SDS011;53212;52.112;5.144;2023-07-30T08:39:01;9.10;;;2.40;;
66402;SDS011;53212;52.112;5.144;2023-07-30T08:41:27;8.10;;;2.20;;
66402;SDS011;53212;52.112;5.144;2023-07-30T08:43:53;8.10;;;2.00;;
66402;SDS011;53212;52.112;5.144;2023-07-30T08:46:18;9.90;;;2.80;;
66402;SDS011;53212;52.112;5.144;2023-07-30T08:48:44;7.90;;;2.90;;
66402;SDS011;53212;52.112;5.144;2023-07-30T08:51:10;8.20;;;3.00;;
66402;SDS011;53212;52.112;5.144;2023-07-30T08:53:38;8.50;;;2.80;;
66402;SDS011;53212;52.112;5.144;2023-07-30T08:56:05;10.30;;;2.90;;
66402;SDS011;53212;52.112;5.144;2023-07-30T08:58:31;11.00;;;3.10;;
66402;SDS011;53212;52.112;5.144;2023-07-30T09:00:59;11.10;;;2.80;;
66402;SDS011;53212;52.112;5.144;2023-07-30T09:03:29;13.30;;;2.90;;
66402;SDS011;53212;52.112;5.144;2023-07-30T09:05:59;9.30;;;2.80;;
66402;SDS011;53212;52.112;5.144;2023-07-30T09:08:24;11.50;;;2.90;;
66402;SDS011;53212;52.112;5.144;2023-07-30T09:10:49;9.60;;;2.80;;
66402;SDS011;53212;52.112;5.144;2023-07-30T09:13:21;13.90;;;3.30;;
66402;SDS011;53212;52.112;5.144;2023-07-30T09:15:48;11.10;;;3.00;;
66402;SDS011;53212;52.112;5.144;2023-07-30T09:18:17;11.30;;;3.20;;
66402;SDS011;53212;52.112;5.144;2023-07-30T09:20:45;10.80;;;3.30;;
66402;SDS011;53212;52.112;5.144;2023-07-30T09:23:11;10.40;;;3.30;;
66402;SDS011;53212;52.112;5.144;2023-07-30T09:25:37;10.70;;;2.50;;
66402;SDS011;53212;52.112;5.144;2023-07-30T09:28:05;11.20;;;3.20;;
66402;SDS011;53212;52.112;5.144;2023-07-30T09:30:31;13.30;;;3.10;;
66402;SDS011;53212;52.112;5.144;2023-07-30T09:32:58;10.60;;;3.00;;
66402;SDS011;53212;52.112;5.144;2023-07-30T09:35:25;9.60;;;2.80;;
66402;SDS011;53212;52.112;5.144;2023-07-30T09:37:59;8.90;;;3.00;;
66402;SDS011;53212;52.112;5.144;2023-07-30T09:40:36;11.30;;;3.00;;
66402;SDS011;53212;52.112;5.144;2023-07-30T09:46:56;8.70;;;2.50;;
66402;SDS011;53212;52.112;5.144;2023-07-30T09:49:21;12.40;;;2.60;;
66402;SDS011;53212;52.112;5.144;2023-07-30T09:51:47;9.20;;;2.20;;
66402;SDS011;53212;52.112;5.144;2023-07-30T09:54:13;6.90;;;2.00;;
66402;SDS011;53212;52.112;5.144;2023-07-30T09:56:40;6.40;;;2.10;;
66402;SDS011;53212;52.112;5.144;2023-07-30T09:59:08;8.00;;;2.50;;
66402;SDS011;53212;52.112;5.144;2023-07-30T10:01:55;8.70;;;2.20;;
66402;SDS011;53212;52.112;5.144;2023-07-30T10:04:22;5.50;;;2.00;;
66402;SDS011;53212;52.112;5.144;2023-07-30T10:06:55;6.60;;;2.00;;
66402;SDS011;53212;52.112;5.144;2023-07-30T10:09:21;8.40;;;2.40;;
66402;SDS011;53212;52.112;5.144;2023-07-30T10:11:49;4.10;;;1.90;;
66402;SDS011;53212;52.112;5.144;2023-07-30T10:14:17;7.10;;;2.00;;
66402;SDS011;53212;52.112;5.144;2023-07-30T10:16:53;8.00;;;2.10;;
66402;SDS011;53212;52.112;5.144;2023-07-30T10:19:26;9.70;;;3.10;;
66402;SDS011;53212;52.112;5.144;2023-07-30T10:24:57;4.90;;;1.50;;
66402;SDS011;53212;52.112;5.144;2023-07-30T10:48:19;5.10;;;1.80;;
66402;SDS011;53212;52.112;5.144;2023-07-30T10:50:54;5.50;;;1.60;;
66402;SDS011;53212;52.112;5.144;2023-07-30T10:53:20;4.80;;;1.60;;
66402;SDS011;53212;52.112;5.144;2023-07-30T10:55:45;6.80;;;1.50;;
66402;SDS011;53212;52.112;5.144;2023-07-30T10:58:11;6.00;;;1.60;;
66402;SDS011;53212;52.112;5.144;2023-07-30T11:00:37;4.60;;;1.70;;
66402;SDS011;53212;52.112;5.144;2023-07-30T11:03:03;4.00;;;1.60;;
66402;SDS011;53212;52.112;5.144;2023-07-30T11:05:28;5.50;;;2.00;;
66402;SDS011;53212;52.112;5.144;2023-07-30T11:07:55;4.50;;;1.60;;
66402;SDS011;53212;52.112;5.144;2023-07-30T11:10:21;6.90;;;2.00;;
66402;SDS011;53212;52.112;5.144;2023-07-30T11:12:48;5.40;;;1.40;;
66402;SDS011;53212;52.112;5.144;2023-07-30T11:15:17;4.90;;;2.00;;
66402;SDS011;53212;52.112;5.144;2023-07-30T11:17:43;7.00;;;2.00;;
66402;SDS011;53212;52.112;5.144;2023-07-30T11:20:24;3.60;;;1.50;;
66402;SDS011;53212;52.112;5.144;2023-07-30T11:22:53;5.40;;;1.60;;
66402;SDS011;53212;52.112;5.144;2023-07-30T11:25:19;3.20;;;1.50;;
66402;SDS011;53212;52.112;5.144;2023-07-30T11:27:46;3.50;;;1.10;;
66402;SDS011;53212;52.112;5.144;2023-07-30T11:30:12;5.50;;;1.50;;
66402;SDS011;53212;52.112;5.144;2023-07-30T11:32:38;7.60;;;2.10;;
66402;SDS011;53212;52.112;5.144;2023-07-30T11:35:05;5.20;;;1.70;;
66402;SDS011;53212;52.112;5.144;2023-07-30T11:37:32;4.70;;;1.90;;
66402;SDS011;53212;52.112;5.144;2023-07-30T11:39:58;8.30;;;1.90;;
66402;SDS011;53212;52.112;5.144;2023-07-30T11:42:23;4.70;;;1.50;;
66402;SDS011;53212;52.112;5.144;2023-07-30T11:44:49;4.50;;;1.60;;
66402;SDS011;53212;52.112;5.144;2023-07-30T11:47:22;4.90;;;1.50;;
66402;SDS011;53212;52.112;5.144;2023-07-30T12:48:15;4.00;;;1.30;;
66402;SDS011;53212;52.112;5.144;2023-07-30T12:50:41;4.40;;;1.30;;
66402;SDS011;53212;52.112;5.144;2023-07-30T12:53:06;2.90;;;1.00;;
66402;SDS011;53212;52.112;5.144;2023-07-30T12:55:32;3.50;;;1.20;;
66402;SDS011;53212;52.112;5.144;2023-07-30T12:57:57;2.80;;;1.10;;
66402;SDS011;53212;52.112;5.144;2023-07-30T13:00:24;2.40;;;0.90;;
66402;SDS011;53212;52.112;5.144;2023-07-30T13:02:49;2.20;;;0.90;;
66402;SDS011;53212;52.112;5.144;2023-07-30T13:05:17;5.70;;;1.30;;
66402;SDS011;53212;52.112;5.144;2023-07-30T13:07:43;2.40;;;1.10;;
66402;SDS011;53212;52.112;5.144;2023-07-30T13:10:09;3.40;;;1.10;;
66402;SDS011;53212;52.112;5.144;2023-07-30T13:12:35;4.40;;;1.30;;
66402;SDS011;53212;52.112;5.144;2023-07-30T13:15:01;4.10;;;1.20;;
66402;SDS011;53212;52.112;5.144;2023-07-30T13:17:28;1.40;;;0.80;;
66402;SDS011;53212;52.112;5.144;2023-07-30T13:19:53;4.40;;;1.40;;
66402;SDS011;53212;52.112;5.144;2023-07-30T13:22:19;4.00;;;1.20;;
66402;SDS011;53212;52.112;5.144;2023-07-30T13:24:44;4.50;;;1.00;;
66402;SDS011;53212;52.112;5.144;2023-07-30T13:27:10;2.40;;;1.00;;
66402;SDS011;53212;52.112;5.144;2023-07-30T13:29:36;3.00;;;1.00;;
66402;SDS011;53212;52.112;5.144;2023-07-30T13:32:02;3.40;;;1.00;;
66402;SDS011;53212;52.112;5.144;2023-07-30T13:34:27;4.10;;;1.20;;
66402;SDS011;53212;52.112;5.144;2023-07-30T13:36:53;4.20;;;1.10;;
66402;SDS011;53212;52.112;5.144;2023-07-30T13:39:18;4.40;;;1.20;;
66402;SDS011;53212;52.112;5.144;2023-07-30T13:41:44;4.50;;;1.50;;
66402;SDS011;53212;52.112;5.144;2023-07-30T13:47:40;2.60;;;1.10;;
66402;SDS011;53212;52.112;5.144;2023-07-30T13:50:07;2.90;;;1.10;;
66402;SDS011;53212;52.112;5.144;2023-07-30T13:52:32;3.50;;;1.40;;
66402;SDS011;53212;52.112;5.144;2023-07-30T13:54:58;3.70;;;1.20;;
66402;SDS011;53212;52.112;5.144;2023-07-30T13:57:24;3.10;;;1.10;;
66402;SDS011;53212;52.112;5.144;2023-07-30T13:59:50;3.40;;;1.40;;
66402;SDS011;53212;52.112;5.144;2023-07-30T14:02:16;3.30;;;1.30;;
66402;SDS011;53212;52.112;5.144;2023-07-30T14:04:42;4.40;;;1.70;;
66402;SDS011;53212;52.112;5.144;2023-07-30T14:07:07;3.40;;;1.10;;
66402;SDS011;53212;52.112;5.144;2023-07-30T14:09:33;2.90;;;1.10;;
66402;SDS011;53212;52.112;5.144;2023-07-30T14:12:01;4.90;;;1.50;;
66402;SDS011;53212;52.112;5.144;2023-07-30T14:14:27;3.50;;;1.50;;
66402;SDS011;53212;52.112;5.144;2023-07-30T14:16:53;3.00;;;1.40;;
66402;SDS011;53212;52.112;5.144;2023-07-30T14:19:19;3.80;;;1.40;;
66402;SDS011;53212;52.112;5.144;2023-07-30T14:21:45;3.70;;;1.80;;
66402;SDS011;53212;52.112;5.144;2023-07-30T14:24:10;4.30;;;1.70;;
66402;SDS011;53212;52.112;5.144;2023-07-30T14:26:36;2.80;;;1.10;;
66402;SDS011;53212;52.112;5.144;2023-07-30T14:29:01;3.30;;;1.40;;
66402;SDS011;53212;52.112;5.144;2023-07-30T14:31:27;5.80;;;1.70;;
66402;SDS011;53212;52.112;5.144;2023-07-30T14:33:52;7.90;;;1.90;;
66402;SDS011;53212;52.112;5.144;2023-07-30T14:36:18;5.70;;;1.90;;
66402;SDS011;53212;52.112;5.144;2023-07-30T14:38:43;6.50;;;1.60;;
66402;SDS011;53212;52.112;5.144;2023-07-30T14:41:09;6.30;;;1.60;;
66402;SDS011;53212;52.112;5.144;2023-07-30T14:46:54;8.50;;;2.20;;
66402;SDS011;53212;52.112;5.144;2023-07-30T14:49:19;7.70;;;2.20;;
66402;SDS011;53212;52.112;5.144;2023-07-30T14:51:45;6.90;;;1.90;;
66402;SDS011;53212;52.112;5.144;2023-07-30T14:54:12;6.70;;;1.90;;
66402;SDS011;53212;52.112;5.144;2023-07-30T14:56:38;6.90;;;2.10;;
66402;SDS011;53212;52.112;5.144;2023-07-30T14:59:03;7.20;;;2.20;;
66402;SDS011;53212;52.112;5.144;2023-07-30T15:01:30;4.10;;;1.70;;
66402;SDS011;53212;52.112;5.144;2023-07-30T15:03:56;4.90;;;1.70;;
66402;SDS011;53212;52.112;5.144;2023-07-30T15:06:21;4.70;;;1.60;;
66402;SDS011;53212;52.112;5.144;2023-07-30T15:08:47;6.40;;;1.80;;
66402;SDS011;53212;52.112;5.144;2023-07-30T15:11:13;4.80;;;1.60;;
66402;SDS011;53212;52.112;5.144;2023-07-30T15:13:39;6.40;;;1.80;;
66402;SDS011;53212;52.112;5.144;2023-07-30T15:16:05;5.20;;;2.00;;
66402;SDS011;53212;52.112;5.144;2023-07-30T15:18:31;4.70;;;2.00;;
66402;SDS011;53212;52.112;5.144;2023-07-30T15:20:58;4.70;;;1.70;;
66402;SDS011;53212;52.112;5.144;2023-07-30T15:23:23;6.00;;;2.10;;
66402;SDS011;53212;52.112;5.144;2023-07-30T15:47:39;8.50;;;2.50;;
66402;SDS011;53212;52.112;5.144;2023-07-30T15:50:05;7.70;;;2.60;;
66402;SDS011;53212;52.112;5.144;2023-07-30T15:52:31;6.30;;;2.50;;
66402;SDS011;53212;52.112;5.144;2023-07-30T15:54:56;7.40;;;2.90;;
66402;SDS011;53212;52.112;5.144;2023-07-30T15:57:22;8.40;;;2.90;;
66402;SDS011;53212;52.112;5.144;2023-07-30T16:48:16;9.10;;;3.40;;
66402;SDS011;53212;52.112;5.144;2023-07-30T16:50:46;13.70;;;4.50;;
66402;SDS011;53212;52.112;5.144;2023-07-30T16:53:12;11.30;;;3.50;;
66402;SDS011;53212;52.112;5.144;2023-07-30T16:55:38;11.10;;;3.50;;
66402;SDS011;53212;52.112;5.144;2023-07-30T16:58:04;11.60;;;3.50;;
66402;SDS011;53212;52.112;5.144;2023-07-30T17:00:30;8.90;;;3.30;;
66402;SDS011;53212;52.112;5.144;2023-07-30T17:02:56;6.90;;;2.70;;
66402;SDS011;53212;52.112;5.144;2023-07-30T17:05:22;7.10;;;1.80;;
66402;SDS011;53212;52.112;5.144;2023-07-30T17:07:51;6.90;;;2.00;;
66402;SDS011;53212;52.112;5.144;2023-07-30T17:10:16;4.00;;;1.70;;
66402;SDS011;53212;52.112;5.144;2023-07-30T17:12:42;3.70;;;1.50;;
66402;SDS011;53212;52.112;5.144;2023-07-30T17:15:08;3.10;;;1.90;;
66402;SDS011;53212;52.112;5.144;2023-07-30T17:17:35;5.80;;;2.30;;
66402;SDS011;53212;52.112;5.144;2023-07-30T17:20:01;5.60;;;2.00;;
66402;SDS011;53212;52.112;5.144;2023-07-30T17:22:26;5.10;;;2.10;;
66402;SDS011;53212;52.112;5.144;2023-07-30T17:24:51;5.70;;;2.10;;
66402;SDS011;53212;52.112;5.144;2023-07-30T17:27:21;4.50;;;2.10;;
66402;SDS011;53212;52.112;5.144;2023-07-30T17:29:46;5.80;;;2.50;;
66402;SDS011;53212;52.112;5.144;2023-07-30T17:32:11;5.80;;;2.00;;
66402;SDS011;53212;52.112;5.144;2023-07-30T17:34:37;4.90;;;2.20;;
66402;SDS011;53212;52.112;5.144;2023-07-30T17:37:02;4.10;;;1.80;;
66402;SDS011;53212;52.112;5.144;2023-07-30T17:39:28;4.50;;;2.50;;
66402;SDS011;53212;52.112;5.144;2023-07-30T17:41:54;3.60;;;1.90;;
66402;SDS011;53212;52.112;5.144;2023-07-30T17:44:20;4.40;;;1.90;;
66402;SDS011;53212;52.112;5.144;2023-07-30T17:46:45;3.20;;;1.90;;
66402;SDS011;53212;52.112;5.144;2023-07-30T18:47:56;3.60;;;1.70;;
66402;SDS011;53212;52.112;5.144;2023-07-30T18:50:22;4.20;;;1.50;;
66402;SDS011;53212;52.112;5.144;2023-07-30T18:52:47;3.90;;;1.90;;
66402;SDS011;53212;52.112;5.144;2023-07-30T18:55:13;2.70;;;1.70;;
66402;SDS011;53212;52.112;5.144;2023-07-30T18:57:38;3.30;;;1.60;;
66402;SDS011;53212;52.112;5.144;2023-07-30T19:00:04;2.70;;;1.70;;
66402;SDS011;53212;52.112;5.144;2023-07-30T19:02:30;3.20;;;1.70;;
66402;SDS011;53212;52.112;5.144;2023-07-30T19:04:55;4.40;;;1.80;;
66402;SDS011;53212;52.112;5.144;2023-07-30T19:07:21;3.30;;;1.50;;
66402;SDS011;53212;52.112;5.144;2023-07-30T19:09:46;2.40;;;1.40;;
66402;SDS011;53212;52.112;5.144;2023-07-30T19:12:12;2.50;;;1.80;;
66402;SDS011;53212;52.112;5.144;2023-07-30T19:14:37;3.20;;;1.80;;
66402;SDS011;53212;52.112;5.144;2023-07-30T19:17:03;2.80;;;1.80;;
66402;SDS011;53212;52.112;5.144;2023-07-30T19:19:29;3.60;;;2.10;;
66402;SDS011;53212;52.112;5.144;2023-07-30T19:21:54;3.00;;;1.90;;
66402;SDS011;53212;52.112;5.144;2023-07-30T19:24:19;2.20;;;1.90;;
66402;SDS011;53212;52.112;5.144;2023-07-30T19:26:46;4.10;;;1.90;;
66402;SDS011;53212;52.112;5.144;2023-07-30T19:29:11;3.10;;;2.20;;
66402;SDS011;53212;52.112;5.144;2023-07-30T19:31:38;3.30;;;2.30;;
66402;SDS011;53212;52.112;5.144;2023-07-30T19:34:08;5.10;;;2.30;;
66402;SDS011;53212;52.112;5.144;2023-07-30T19:36:36;4.70;;;2.30;;
66402;SDS011;53212;52.112;5.144;2023-07-30T19:39:03;2.30;;;1.90;;
66402;SDS011;53212;52.112;5.144;2023-07-30T19:41:28;4.20;;;1.90;;
66402;SDS011;53212;52.112;5.144;2023-07-30T19:43:54;2.20;;;1.90;;
66402;SDS011;53212;52.112;5.144;2023-07-30T19:46:19;2.00;;;1.90;;
66402;SDS011;53212;52.112;5.144;2023-07-30T19:48:45;5.20;;;1.80;;
66402;SDS011;53212;52.112;5.144;2023-07-30T19:51:10;3.50;;;1.80;;
66402;SDS011;53212;52.112;5.144;2023-07-30T19:53:36;2.60;;;1.80;;
66402;SDS011;53212;52.112;5.144;2023-07-30T19:56:02;2.20;;;1.50;;
66402;SDS011;53212;52.112;5.144;2023-07-30T19:58:32;2.00;;;1.80;;
66402;SDS011;53212;52.112;5.144;2023-07-30T20:00:59;1.80;;;1.60;;
66402;SDS011;53212;52.112;5.144;2023-07-30T20:03:27;2.40;;;1.90;;
66402;SDS011;53212;52.112;5.144;2023-07-30T20:06:04;1.80;;;1.60;;
66402;SDS011;53212;52.112;5.144;2023-07-30T20:08:31;1.60;;;1.30;;
66402;SDS011;53212;52.112;5.144;2023-07-30T20:10:59;2.70;;;1.20;;
66402;SDS011;53212;52.112;5.144;2023-07-30T20:13:25;1.60;;;1.30;;
66402;SDS011;53212;52.112;5.144;2023-07-30T20:15:51;2.20;;;1.20;;
66402;SDS011;53212;52.112;5.144;2023-07-30T20:18:17;1.30;;;1.20;;
66402;SDS011;53212;52.112;5.144;2023-07-30T20:20:43;1.40;;;1.30;;
66402;SDS011;53212;52.112;5.144;2023-07-30T20:23:09;1.30;;;1.20;;
66402;SDS011;53212;52.112;5.144;2023-07-30T20:25:36;1.20;;;1.10;;
66402;SDS011;53212;52.112;5.144;2023-07-30T20:28:03;4.80;;;1.50;;
66402;SDS011;53212;52.112;5.144;2023-07-30T20:30:36;1.70;;;1.30;;
66402;SDS011;53212;52.112;5.144;2023-07-30T20:33:02;1.60;;;1.20;;
66402;SDS011;53212;52.112;5.144;2023-07-30T20:35:29;1.30;;;1.20;;
66402;SDS011;53212;52.112;5.144;2023-07-30T20:37:55;1.40;;;1.30;;
66402;SDS011;53212;52.112;5.144;2023-07-30T20:40:25;2.00;;;1.60;;
66402;SDS011;53212;52.112;5.144;2023-07-30T20:42:52;1.70;;;1.30;;
66402;SDS011;53212;52.112;5.144;2023-07-30T20:45:19;2.60;;;1.40;;
66402;SDS011;53212;52.112;5.144;2023-07-30T20:47:51;1.50;;;1.20;;
66402;SDS011;53212;52.112;5.144;2023-07-30T20:50:17;1.50;;;1.40;;
66402;SDS011;53212;52.112;5.144;2023-07-30T20:52:47;1.50;;;1.40;;
66402;SDS011;53212;52.112;5.144;2023-07-30T20:55:14;1.30;;;1.20;;
66402;SDS011;53212;52.112;5.144;2023-07-30T20:57:41;1.30;;;1.20;;
66402;SDS011;53212;52.112;5.144;2023-07-30T21:00:07;1.20;;;1.10;;
66402;SDS011;53212;52.112;5.144;2023-07-30T21:02:35;2.40;;;1.20;;
66402;SDS011;53212;52.112;5.144;2023-07-30T21:05:00;2.70;;;1.20;;
66402;SDS011;53212;52.112;5.144;2023-07-30T21:07:26;1.40;;;1.30;;
66402;SDS011;53212;52.112;5.144;2023-07-30T21:09:51;1.30;;;1.20;;
66402;SDS011;53212;52.112;5.144;2023-07-30T21:12:19;2.70;;;1.60;;
66402;SDS011;53212;52.112;5.144;2023-07-30T21:14:45;2.40;;;1.60;;
66402;SDS011;53212;52.112;5.144;2023-07-30T21:17:11;2.70;;;1.20;;
66402;SDS011;53212;52.112;5.144;2023-07-30T21:19:36;1.20;;;1.10;;
66402;SDS011;53212;52.112;5.144;2023-07-30T21:22:01;1.60;;;1.20;;
66402;SDS011;53212;52.112;5.144;2023-07-30T21:24:27;1.50;;;1.40;;
66402;SDS011;53212;52.112;5.144;2023-07-30T21:26:52;1.20;;;1.10;;
66402;SDS011;53212;52.112;5.144;2023-07-30T21:29:18;1.70;;;1.40;;
66402;SDS011;53212;52.112;5.144;2023-07-30T21:31:43;2.30;;;1.50;;
66402;SDS011;53212;52.112;5.144;2023-07-30T21:34:09;2.20;;;1.50;;